Terminal Aerodrome Forecast
Issued by NWS

Home | Current Version | Previous Version | Text Only | Print | Product List | Glossary On
Versions: 1 2 3 4 5 6 7 8 9 10 11 12 13 14 15 16 17 18
000
FTUS43 KMPX 020233 AAA
TAFRNH
TAF AMD
KRNH 020233Z 0203/0224 26010G15KT P6SM -SHRA VCTS BKN060CB OVC100
     FM020300 VRB04KT P6SM -SHRA SCT020 BKN080
     FM020430 29008KT P6SM SKC
     FM021500 28015G25KT P6SM SKC=

USA.gov is the U.S. government's official web portal to all federal, state and local government web resources and services.